Time;durP1;ratioP1;P1;durP2;ratioP2;P2;SDS_P1;SDS_P2;PMS_P1;PMS_P2;Temp;Humidity;BMP_temperature;BMP_pressure;BME280_temperature;BME280_humidity;BME280_pressure;Samples;Min_cycle;Max_cycle;Signal;HPM_P1;HPM_P2
2021/07/15 00:00:26;;;;;;;4.10;2.58;;;;;;;16.60;75.06;95951.88;5112663;28;20075;-74
2021/07/15 00:02:53;;;;;;;4.57;2.55;;;;;;;16.62;75.55;95943.28;5108225;28;20494;-73
2021/07/15 00:05:20;;;;;;;5.72;2.88;;;;;;;16.63;76.09;95945.66;5112352;28;20051;-72
2021/07/15 00:07:47;;;;;;;4.68;2.47;;;;;;;16.63;75.85;95939.34;5112822;28;20043;-73
2021/07/15 00:10:19;;;;;;;3.00;2.70;;;;;;;16.60;75.79;95942.81;5112379;28;20040;-72
2021/07/15 00:12:46;;;;;;;3.63;2.25;;;;;;;16.61;75.74;95941.69;5112861;28;20043;-73
2021/07/15 00:15:15;;;;;;;5.82;2.67;;;;;;;16.61;75.10;95944.44;5112263;28;20398;-72
2021/07/15 00:17:43;;;;;;;2.97;2.40;;;;;;;16.59;75.13;95942.03;5112618;28;20043;-73
2021/07/15 00:20:13;;;;;;;5.75;2.50;;;;;;;16.58;75.32;95948.69;5111981;28;20051;-73
2021/07/15 00:22:40;;;;;;;4.40;2.22;;;;;;;16.58;75.02;95953.41;5112543;28;20515;-72
2021/07/15 00:25:09;;;;;;;3.95;2.50;;;;;;;16.53;75.22;95945.47;5111517;28;20044;-72
2021/07/15 00:27:36;;;;;;;3.42;2.63;;;;;;;16.51;75.24;95953.28;5112380;28;20563;-72
2021/07/15 00:30:03;;;;;;;3.60;2.47;;;;;;;16.49;75.39;95947.34;5111812;28;20052;-72
2021/07/15 00:32:30;;;;;;;4.80;2.75;;;;;;;16.50;75.01;95946.22;5112046;28;20043;-73
2021/07/15 00:34:58;;;;;;;2.70;2.25;;;;;;;16.42;74.81;95942.53;5112305;28;20506;-75
2021/07/15 00:37:24;;;;;;;2.92;2.63;;;;;;;16.39;75.41;95940.50;5111713;28;20050;-73
2021/07/15 00:39:51;;;;;;;4.65;2.47;;;;;;;16.40;76.16;95942.91;5111866;28;20569;-73
2021/07/15 00:42:17;;;;;;;2.90;2.45;;;;;;;16.42;75.52;95948.81;5111635;28;20502;-73
2021/07/15 00:44:44;;;;;;;3.65;2.58;;;;;;;16.41;74.98;95939.00;5112035;28;20395;-73
2021/07/15 00:47:10;;;;;;;5.80;2.67;;;;;;;16.38;75.41;95945.19;5111529;28;20129;-73
2021/07/15 00:49:37;;;;;;;3.65;2.17;;;;;;;16.35;75.55;95940.44;5112103;28;20039;-73
2021/07/15 00:52:11;;;;;;;3.60;2.20;;;;;;;16.29;74.15;95941.13;5111357;28;20047;-72
2021/07/15 00:54:38;;;;;;;2.88;1.92;;;;;;;16.23;74.21;95937.84;5112273;28;20574;-73
2021/07/15 00:57:05;;;;;;;2.17;1.58;;;;;;;16.14;73.54;95937.31;5110865;28;20478;-73
2021/07/15 00:59:32;;;;;;;4.10;1.40;;;;;;;16.04;73.73;95941.44;5111944;28;20056;-73
2021/07/15 01:01:58;;;;;;;3.20;1.50;;;;;;;15.97;73.39;95935.00;5111803;28;20047;-73
2021/07/15 01:04:25;;;;;;;1.83;1.27;;;;;;;15.97;74.14;95932.25;5111075;28;20059;-73
2021/07/15 01:06:51;;;;;;;1.77;0.90;;;;;;;15.97;73.91;95941.28;5112042;28;20058;-74
2021/07/15 01:09:19;;;;;;;1.65;1.10;;;;;;;15.99;73.94;95943.69;5111095;28;20414;-73
2021/07/15 01:11:53;;;;;;;3.92;0.93;;;;;;;16.00;73.71;95946.06;5111611;28;20043;-73
2021/07/15 01:14:27;;;;;;;2.28;1.10;;;;;;;15.97;73.97;95952.28;5111132;28;20036;-73
2021/07/15 01:16:58;;;;;;;2.08;1.10;;;;;;;16.02;74.00;95942.94;5111697;28;20055;-73
2021/07/15 01:20:02;;;;;;;1.38;1.10;;;;;;;16.08;74.28;95941.53;5111116;28;20051;-73
2021/07/15 01:22:31;;;;;;;1.50;1.10;;;;;;;16.11;73.90;95940.78;5111440;28;20039;-73
2021/07/15 01:25:34;;;;;;;3.42;1.02;;;;;;;16.13;73.90;95941.19;5111476;28;20406;-73
2021/07/15 01:28:06;;;;;;;1.20;0.93;;;;;;;16.12;73.27;95939.63;5111308;28;20043;-73
2021/07/15 01:30:37;;;;;;;2.00;1.20;;;;;;;16.09;73.44;95934.88;5111253;28;20130;-73
2021/07/15 01:33:08;;;;;;;0.93;0.75;;;;;;;16.08;74.14;95936.03;5110768;28;20043;-72
2021/07/15 01:35:42;;;;;;;2.50;1.20;;;;;;;16.09;74.43;95934.88;5111570;28;20050;-73
2021/07/15 01:38:11;;;;;;;1.50;1.00;;;;;;;16.11;74.58;95935.28;5110997;28;20051;-72
2021/07/15 01:40:45;;;;;;;2.33;1.00;;;;;;;16.16;74.92;95935.00;5111507;28;20438;-74
2021/07/15 01:43:21;;;;;;;2.17;1.10;;;;;;;16.21;73.83;95940.19;5110839;28;20048;-74
2021/07/15 01:45:49;;;;;;;1.00;0.90;;;;;;;16.23;73.94;95932.38;5111404;28;20035;-75
2021/07/15 01:48:16;;;;;;;1.60;1.20;;;;;;;16.25;73.91;95929.28;5110734;28;20052;-73
2021/07/15 01:50:43;;;;;;;1.70;1.00;;;;;;;16.25;74.22;95932.81;5111512;28;20039;-74
2021/07/15 01:53:09;;;;;;;1.20;1.10;;;;;;;16.29;73.48;95936.41;5110722;28;20039;-73
2021/07/15 01:55:37;;;;;;;2.30;1.00;;;;;;;16.32;72.93;95937.63;5111377;28;20039;-73
2021/07/15 01:58:06;;;;;;;2.60;1.08;;;;;;;16.32;72.96;95935.69;5110705;28;20057;-72
2021/07/15 02:00:33;;;;;;;1.92;1.20;;;;;;;16.31;72.88;95936.84;5111448;28;20403;-72
2021/07/15 02:03:04;;;;;;;2.20;1.15;;;;;;;16.26;72.87;95937.13;5111028;28;20545;-73
2021/07/15 02:05:32;;;;;;;1.40;1.02;;;;;;;16.26;73.24;95934.41;5111059;28;20043;-74
2021/07/15 02:08:00;;;;;;;1.30;1.10;;;;;;;16.26;73.52;95936.34;5111972;28;20559;-73
2021/07/15 02:10:27;;;;;;;3.25;1.08;;;;;;;16.25;73.11;95934.75;5114709;28;20036;-72
2021/07/15 02:12:54;;;;;;;3.08;1.17;;;;;;;16.28;73.45;95945.81;5115146;28;20040;-73
2021/07/15 02:15:22;;;;;;;2.25;1.33;;;;;;;16.29;73.28;95939.16;5114442;28;20050;-74
2021/07/15 02:17:49;;;;;;;1.23;1.10;;;;;;;16.31;73.68;95949.78;5115017;28;20044;-73
2021/07/15 02:20:21;;;;;;;1.58;1.00;;;;;;;16.32;73.78;95941.16;5114322;28;20605;-72
2021/07/15 02:22:49;;;;;;;3.13;1.30;;;;;;;16.30;73.23;95946.25;5114764;28;20044;-74
2021/07/15 02:25:19;;;;;;;1.73;1.20;;;;;;;16.32;73.87;95946.66;5114307;28;20388;-72
2021/07/15 02:27:48;;;;;;;2.33;1.20;;;;;;;16.31;73.14;95939.59;5114978;28;20410;-73
2021/07/15 02:30:17;;;;;;;3.15;1.15;;;;;;;16.34;72.88;95940.78;5114183;28;20502;-73
2021/07/15 02:32:48;;;;;;;2.05;1.30;;;;;;;16.36;72.92;95942.03;5114290;28;20036;-73
2021/07/15 02:35:19;;;;;;;1.95;1.00;;;;;;;16.34;73.24;95933.38;5114308;28;20398;-73
2021/07/15 02:37:48;;;;;;;1.45;1.05;;;;;;;16.38;73.70;95936.97;5114530;28;20050;-74
2021/07/15 02:40:18;;;;;;;1.70;1.20;;;;;;;16.40;73.80;95937.41;5114176;28;20490;-72
2021/07/15 02:42:46;;;;;;;2.97;1.35;;;;;;;16.37;74.24;95942.81;5114470;28;20043;-73
2021/07/15 02:45:15;;;;;;;1.60;1.15;;;;;;;16.36;74.70;95942.03;5113777;28;20043;-73
2021/07/15 02:47:42;;;;;;;3.28;1.33;;;;;;;16.39;74.08;95943.25;5114282;28;20040;-73
2021/07/15 02:50:11;;;;;;;2.22;1.17;;;;;;;16.39;73.94;95941.31;5113897;28;20048;-72
2021/07/15 02:52:39;;;;;;;1.60;1.30;;;;;;;16.38;74.43;95938.91;5114290;28;20050;-73
2021/07/15 02:55:07;;;;;;;1.38;1.00;;;;;;;16.37;75.25;95942.81;5113961;28;20051;-73
2021/07/15 02:57:41;;;;;;;1.38;1.10;;;;;;;16.38;75.74;95938.91;5114296;28;20035;-73
2021/07/15 03:00:10;;;;;;;1.58;1.20;;;;;;;16.37;76.13;95938.13;5113843;28;20440;-73
2021/07/15 03:02:45;;;;;;;2.10;1.20;;;;;;;16.36;76.67;95944.78;5114034;28;20050;-73
2021/07/15 03:05:15;;;;;;;1.85;1.35;;;;;;;16.30;76.81;95938.00;5113730;28;20059;-73
2021/07/15 03:07:49;;;;;;;1.55;1.30;;;;;;;16.35;76.83;95942.41;5113958;28;20042;-73
2021/07/15 03:10:18;;;;;;;2.58;1.40;;;;;;;16.34;77.13;95936.13;5113410;28;20047;-72
2021/07/15 03:12:45;;;;;;;2.10;1.55;;;;;;;16.30;77.32;95935.25;5114045;28;20039;-73
2021/07/15 03:15:13;;;;;;;2.72;1.42;;;;;;;16.34;77.42;95933.38;5113542;28;20191;-74
2021/07/15 03:17:43;;;;;;;7.45;1.05;;;;;;;16.31;73.52;95928.59;5113784;28;20548;-73
2021/07/15 03:20:13;;;;;;;2.08;1.02;;;;;;;16.30;74.63;95932.50;5113061;28;20411;-72
2021/07/15 03:22:42;;;;;;;2.80;1.20;;;;;;;16.29;75.63;95930.94;5113704;28;20039;-72
2021/07/15 03:25:15;;;;;;;1.67;1.02;;;;;;;16.29;75.48;95930.13;5113058;28;20660;-72
2021/07/15 03:27:44;;;;;;;2.08;1.02;;;;;;;16.30;75.44;95938.00;5113706;28;20046;-73
2021/07/15 03:30:13;;;;;;;1.58;1.48;;;;;;;16.31;75.57;95939.59;5113179;28;20043;-72
2021/07/15 03:32:40;;;;;;;1.70;1.13;;;;;;;16.29;76.11;95944.66;5112817;28;20486;-74
2021/07/15 03:35:09;;;;;;;1.45;1.00;;;;;;;16.30;76.83;95938.00;5113042;28;20043;-72
2021/07/15 03:37:36;;;;;;;1.50;0.90;;;;;;;16.34;76.81;95944.38;5113529;28;20047;-73
2021/07/15 03:40:04;;;;;;;3.25;1.20;;;;;;;16.34;76.85;95952.59;5112814;28;20054;-71
2021/07/15 03:42:32;;;;;;;1.65;1.20;;;;;;;16.35;76.79;95951.44;5113394;28;20388;-73
2021/07/15 03:45:01;;;;;;;1.23;0.93;;;;;;;16.34;75.80;95957.28;5113411;28;20073;-73
2021/07/15 03:47:29;;;;;;;1.73;1.23;;;;;;;16.37;75.79;95953.81;5113031;28;20445;-73
2021/07/15 03:49:57;;;;;;;1.77;1.10;;;;;;;16.39;75.70;95957.81;5113275;28;20047;-73
2021/07/15 03:52:24;;;;;;;1.73;1.00;;;;;;;16.39;76.17;95962.47;5112716;28;20043;-72
2021/07/15 03:54:52;;;;;;;1.65;0.90;;;;;;;16.38;76.62;95958.94;5113251;28;20058;-73
2021/07/15 03:57:20;;;;;;;3.53;1.08;;;;;;;16.38;76.88;95966.41;5112529;28;20043;-73
2021/07/15 03:59:50;;;;;;;2.03;1.30;;;;;;;16.36;76.53;95964.03;5113135;28;20044;-72
2021/07/15 04:02:19;;;;;;;4.40;1.75;;;;;;;16.35;76.50;95967.13;5110278;28;20048;-73
2021/07/15 04:04:49;;;;;;;2.30;1.35;;;;;;;16.34;76.71;95971.84;5112729;28;20043;-75
2021/07/15 04:07:18;;;;;;;3.83;1.70;;;;;;;16.35;77.24;95967.13;5112433;28;20047;-74
2021/07/15 04:09:46;;;;;;;2.95;1.52;;;;;;;16.31;77.18;95969.81;5112913;28;20040;-74
2021/07/15 04:12:13;;;;;;;5.15;2.42;;;;;;;16.34;77.00;95968.28;5112039;28;20059;-75
2021/07/15 04:14:58;;;;;;;3.90;1.70;;;;;;;16.33;76.98;95970.22;5112719;28;20043;-74
2021/07/15 04:17:27;;;;;;;5.53;1.55;;;;;;;16.36;76.90;95969.50;5112214;28;20055;-75
2021/07/15 04:19:59;;;;;;;2.55;1.20;;;;;;;16.38;76.87;95975.44;5112541;28;20043;-74
2021/07/15 04:22:27;;;;;;;2.53;1.38;;;;;;;16.40;77.06;95973.13;5111893;28;20050;-74
2021/07/15 04:24:54;;;;;;;3.03;1.40;;;;;;;16.41;76.92;95960.97;5112280;28;20071;-74
2021/07/15 04:27:22;;;;;;;3.17;1.30;;;;;;;16.44;77.04;95963.00;5112087;28;20047;-74
2021/07/15 04:29:50;;;;;;;1.58;1.20;;;;;;;16.47;77.43;95958.72;5112391;28;20047;-74
2021/07/15 04:32:23;;;;;;;3.08;1.50;;;;;;;16.50;77.45;95966.25;5110955;28;20048;-75
2021/07/15 04:34:51;;;;;;;1.45;1.13;;;;;;;16.52;77.64;95954.88;5092336;28;20514;-74
2021/07/15 04:37:18;;;;;;;5.30;1.38;;;;;;;16.49;77.51;95966.59;5091466;28;20063;-74
2021/07/15 04:39:47;;;;;;;2.38;1.35;;;;;;;16.49;77.41;95966.59;5091774;28;20040;-76
2021/07/15 04:42:16;;;;;;;3.55;1.38;;;;;;;16.49;77.24;95964.63;5091487;28;20044;-74
2021/07/15 04:44:45;;;;;;;2.47;1.20;;;;;;;16.53;76.58;95961.94;5095753;28;20051;-75
2021/07/15 04:47:14;;;;;;;2.83;1.02;;;;;;;16.51;76.19;95956.84;5111853;28;20047;-74
2021/07/15 04:49:41;;;;;;;1.20;0.80;;;;;;;16.53;73.46;95967.44;5112070;28;20065;-75
2021/07/15 04:52:09;;;;;;;2.40;0.82;;;;;;;16.53;73.40;95956.47;5111633;28;20040;-73
2021/07/15 04:54:37;;;;;;;2.33;0.70;;;;;;;16.54;72.14;95961.56;5112146;28;20052;-75
2021/07/15 04:57:09;;;;;;;1.95;0.82;;;;;;;16.55;71.23;95959.63;5111375;28;20047;-74
2021/07/15 04:59:35;;;;;;;0.70;0.68;;;;;;;16.54;71.74;95964.31;5112108;28;20459;-75
2021/07/15 05:02:03;;;;;;;1.95;0.85;;;;;;;16.56;72.31;95963.97;5111479;28;20043;-72
2021/07/15 05:04:31;;;;;;;1.48;0.75;;;;;;;16.57;70.90;95968.31;5109411;28;20513;-74
2021/07/15 05:06:57;;;;;;;0.90;0.70;;;;;;;16.54;70.77;95963.53;5111834;28;20043;-74
2021/07/15 05:09:23;;;;;;;3.72;0.80;;;;;;;16.56;69.43;95962.03;5111334;28;20448;-72
2021/07/15 05:11:50;;;;;;;2.20;0.68;;;;;;;16.59;69.63;95963.22;5111743;28;20043;-72
2021/07/15 05:14:17;;;;;;;1.17;0.82;;;;;;;16.62;70.35;95959.75;5111422;28;20048;-73
2021/07/15 05:16:43;;;;;;;2.17;0.70;;;;;;;16.59;70.40;95955.78;5112064;28;20036;-73
2021/07/15 05:19:10;;;;;;;1.17;0.65;;;;;;;16.62;69.17;95954.25;5111289;28;20047;-72
2021/07/15 05:21:37;;;;;;;4.72;1.02;;;;;;;16.60;68.79;95962.06;5111462;28;20047;-73
2021/07/15 05:24:04;;;;;;;1.17;0.75;;;;;;;16.52;69.32;95961.16;5111105;28;20055;-71
2021/07/15 05:26:31;;;;;;;1.13;0.75;;;;;;;16.53;69.67;95961.94;5111178;28;20040;-72
2021/07/15 05:28:58;;;;;;;0.75;0.68;;;;;;;16.49;69.64;95961.09;5111624;28;20047;-73
2021/07/15 05:31:26;;;;;;;1.23;0.77;;;;;;;16.50;69.93;95962.69;5110898;28;20052;-73
2021/07/15 05:33:53;;;;;;;2.60;0.70;;;;;;;16.58;71.13;95961.66;5111294;28;20131;-74
2021/07/15 05:36:19;;;;;;;2.20;0.90;;;;;;;16.60;70.50;95957.38;5111007;28;20046;-73
2021/07/15 05:38:47;;;;;;;1.88;1.00;;;;;;;16.65;71.15;95956.25;5111419;28;20399;-74
2021/07/15 05:41:13;;;;;;;3.55;0.85;;;;;;;16.76;71.72;95953.72;5111287;28;20047;-74
2021/07/15 05:43:40;;;;;;;1.67;1.13;;;;;;;16.84;72.20;95947.97;5115252;28;20039;-73
2021/07/15 05:46:06;;;;;;;2.13;1.05;;;;;;;16.86;70.70;95953.94;5115277;28;20046;-73
2021/07/15 05:48:32;;;;;;;2.88;1.23;;;;;;;16.84;69.84;95958.19;5115596;28;20047;-74
2021/07/15 05:50:59;;;;;;;2.13;1.17;;;;;;;16.81;70.27;95957.00;5115562;28;20444;-74
2021/07/15 05:53:25;;;;;;;5.00;1.30;;;;;;;16.81;69.80;95962.50;5114582;28;20410;-73
2021/07/15 05:55:53;;;;;;;2.60;1.38;;;;;;;16.79;70.87;95959.28;5115161;28;20052;-73
2021/07/15 05:58:20;;;;;;;3.10;1.27;;;;;;;16.80;71.45;95958.13;5114701;28;20631;-73
2021/07/15 06:00:46;;;;;;;2.00;1.30;;;;;;;16.77;71.40;95960.84;5115100;28;20410;-74
2021/07/15 06:03:12;;;;;;;3.25;1.13;;;;;;;16.79;72.19;95953.78;5114398;28;20043;-73
2021/07/15 06:05:39;;;;;;;2.28;1.25;;;;;;;16.81;72.43;95954.25;5115239;28;20046;-73
2021/07/15 06:08:07;;;;;;;4.43;1.23;;;;;;;16.81;72.64;95948.75;5114499;28;20494;-73
2021/07/15 06:10:34;;;;;;;3.50;1.40;;;;;;;16.81;72.66;95962.50;5115092;28;20539;-73
2021/07/15 06:13:02;;;;;;;4.45;1.30;;;;;;;16.82;72.91;95964.06;5114881;28;20043;-73
2021/07/15 06:15:28;;;;;;;6.80;1.95;;;;;;;16.85;73.41;95952.31;5114492;28;20461;-73
2021/07/15 06:17:55;;;;;;;1.95;1.02;;;;;;;16.89;73.16;95953.19;5115095;28;20051;-73
2021/07/15 06:20:21;;;;;;;4.40;1.30;;;;;;;16.93;72.70;95953.25;5114556;28;20070;-73
2021/07/15 06:22:48;;;;;;;4.20;1.20;;;;;;;16.94;70.67;95952.06;5114920;28;20040;-73
2021/07/15 06:25:15;;;;;;;1.05;0.80;;;;;;;16.97;71.18;95947.81;5114192;28;20051;-73
2021/07/15 06:27:42;;;;;;;2.90;1.00;;;;;;;17.00;69.68;95947.06;5114885;28;20051;-73
2021/07/15 06:30:13;;;;;;;1.10;0.90;;;;;;;17.04;66.96;95943.19;5114304;28;20048;-73
2021/07/15 06:32:39;;;;;;;4.35;1.27;;;;;;;17.06;67.58;95940.84;5114295;28;20039;-73
2021/07/15 06:35:07;;;;;;;1.90;1.10;;;;;;;17.13;66.24;95937.44;5114295;28;20043;-72
2021/07/15 06:37:35;;;;;;;1.38;0.95;;;;;;;17.09;65.80;95947.59;5114560;28;20067;-73
2021/07/15 06:40:04;;;;;;;2.20;1.10;;;;;;;16.99;65.95;95946.25;5114784;28;20040;-73
2021/07/15 06:42:30;;;;;;;2.70;0.98;;;;;;;17.07;67.04;95949.91;5114270;28;20031;-73
2021/07/15 06:44:57;;;;;;;2.20;1.00;;;;;;;17.17;67.50;95952.84;5114236;28;20071;-73
2021/07/15 06:47:24;;;;;;;1.67;0.90;;;;;;;17.29;67.64;95957.34;5113988;28;20513;-74
2021/07/15 06:49:51;;;;;;;2.63;1.13;;;;;;;17.37;66.03;95956.25;5114370;28;20047;-73
2021/07/15 06:52:17;;;;;;;2.70;1.30;;;;;;;17.33;66.00;95949.94;5113884;28;20054;-73
2021/07/15 06:54:44;;;;;;;1.85;0.93;;;;;;;17.37;66.28;95950.75;5113469;28;20039;-73
2021/07/15 06:57:11;;;;;;;2.22;1.15;;;;;;;17.40;67.48;95950.03;5113704;28;20044;-73
2021/07/15 06:59:37;;;;;;;3.10;1.13;;;;;;;17.42;65.59;95944.13;5114072;28;20044;-73
2021/07/15 07:02:06;;;;;;;1.65;0.93;;;;;;;17.50;66.26;95947.78;5113127;28;20043;-73
2021/07/15 07:04:34;;;;;;;2.05;1.30;;;;;;;17.65;66.44;95949.56;5111974;28;20043;-73
2021/07/15 07:07:01;;;;;;;3.42;1.25;;;;;;;17.83;67.70;95945.09;5113760;28;20108;-73
2021/07/15 07:09:27;;;;;;;1.92;1.10;;;;;;;17.96;66.12;95946.47;5113283;28;20047;-73
2021/07/15 07:11:54;;;;;;;1.92;1.05;;;;;;;18.02;65.77;95954.38;5113586;28;20444;-73
2021/07/15 07:14:20;;;;;;;1.50;0.90;;;;;;;18.04;65.30;95952.03;5113301;28;20052;-73
2021/07/15 07:16:46;;;;;;;2.92;0.98;;;;;;;18.10;63.85;95953.28;5113662;28;20047;-73
2021/07/15 07:19:13;;;;;;;2.47;0.95;;;;;;;18.15;63.80;95956.50;5113075;28;20055;-73
2021/07/15 07:21:41;;;;;;;3.17;1.15;;;;;;;18.23;62.75;95962.91;5113509;28;20448;-73
2021/07/15 07:24:07;;;;;;;2.03;0.93;;;;;;;18.25;61.17;95957.78;5112990;28;20044;-72
2021/07/15 07:26:34;;;;;;;1.30;0.90;;;;;;;18.32;63.14;95949.59;5113263;28;20039;-73
2021/07/15 07:29:00;;;;;;;1.70;1.02;;;;;;;18.34;61.70;95952.78;5112821;28;20066;-73
2021/07/15 07:31:27;;;;;;;3.70;0.93;;;;;;;18.34;62.32;95958.28;5113384;28;20406;-73
2021/07/15 07:33:54;;;;;;;2.50;0.85;;;;;;;18.28;61.28;95959.81;5113076;28;20130;-73
2021/07/15 07:36:20;;;;;;;1.02;0.80;;;;;;;18.21;61.66;95959.72;5113095;28;20044;-75
2021/07/15 07:38:48;;;;;;;1.08;0.80;;;;;;;18.21;62.18;95954.19;5113579;28;20042;-73
2021/07/15 07:41:15;;;;;;;2.33;1.35;;;;;;;18.14;62.96;95954.13;5112805;28;20054;-74
2021/07/15 07:43:41;;;;;;;5.63;1.25;;;;;;;18.11;63.63;95955.66;5113303;28;20043;-74
2021/07/15 07:46:08;;;;;;;1.75;1.08;;;;;;;18.07;63.08;95956.81;5112962;28;20048;-72
2021/07/15 07:48:34;;;;;;;1.17;0.85;;;;;;;18.15;62.77;95963.97;5113208;28;20046;-74
2021/07/15 07:51:01;;;;;;;1.77;1.08;;;;;;;18.21;63.29;95962.47;5113292;28;20523;-74
2021/07/15 07:53:28;;;;;;;3.67;1.20;;;;;;;18.21;64.06;95960.50;5112787;28;20379;-74
2021/07/15 07:55:56;;;;;;;1.08;0.88;;;;;;;18.22;63.89;95964.06;5113077;28;20048;-73
2021/07/15 07:58:24;;;;;;;2.05;0.90;;;;;;;18.26;62.52;95956.63;5112633;28;20051;-73
2021/07/15 08:00:51;;;;;;;2.67;1.00;;;;;;;18.28;64.68;95962.56;5113006;28;20054;-73
2021/07/15 08:03:18;;;;;;;2.15;1.40;;;;;;;18.26;62.66;95962.13;5112292;28;20048;-73
2021/07/15 08:05:45;;;;;;;2.45;1.20;;;;;;;18.36;64.48;95955.94;5111666;28;20047;-74
2021/07/15 08:08:12;;;;;;;3.25;1.00;;;;;;;18.42;64.67;95959.13;5112353;28;20051;-73
2021/07/15 08:10:38;;;;;;;2.15;1.27;;;;;;;18.40;63.25;95956.78;5112847;28;20043;-73
2021/07/15 08:13:06;;;;;;;2.67;1.00;;;;;;;18.44;64.87;95957.59;5112356;28;20048;-74
2021/07/15 08:15:33;;;;;;;2.95;1.23;;;;;;;18.49;64.79;95960.03;5112901;28;20050;-73
2021/07/15 08:17:59;;;;;;;1.80;1.10;;;;;;;18.52;65.18;95953.72;5112917;28;20048;-73
2021/07/15 08:20:26;;;;;;;2.30;1.25;;;;;;;18.56;62.52;95958.50;5112293;28;20051;-73
2021/07/15 08:22:52;;;;;;;1.95;1.00;;;;;;;18.51;64.35;95957.66;5112525;28;20040;-74
2021/07/15 08:25:19;;;;;;;1.17;0.88;;;;;;;18.51;63.31;95962.38;5111962;28;20051;-73
2021/07/15 08:27:46;;;;;;;1.00;0.82;;;;;;;18.49;63.24;95962.78;5112548;28;20131;-74
2021/07/15 08:30:16;;;;;;;1.27;1.00;;;;;;;18.49;60.38;95971.06;5112087;28;20059;-73
2021/07/15 08:32:43;;;;;;;2.78;0.98;;;;;;;18.51;61.43;95967.91;5109537;28;20070;-75
2021/07/15 08:35:10;;;;;;;1.85;0.80;;;;;;;18.55;62.96;95967.94;5111917;28;20051;-74
2021/07/15 08:37:37;;;;;;;4.03;1.17;;;;;;;18.60;60.85;95964.84;5112230;28;20051;-74
2021/07/15 08:40:05;;;;;;;1.25;0.98;;;;;;;18.68;60.54;95964.56;5111826;28;20067;-72
2021/07/15 08:42:31;;;;;;;2.63;1.00;;;;;;;18.69;60.20;95966.16;5112199;28;20562;-74
2021/07/15 08:45:02;;;;;;;1.35;0.80;;;;;;;18.68;62.52;95966.53;5112346;28;20054;-74
2021/07/15 08:47:30;;;;;;;1.60;0.82;;;;;;;18.63;61.57;95975.09;5111869;28;20044;-73
2021/07/15 08:49:57;;;;;;;1.70;1.10;;;;;;;18.60;61.21;95981.41;5111893;28;20044;-75
2021/07/15 08:52:25;;;;;;;1.48;1.00;;;;;;;18.69;63.20;95979.16;5111753;28;20398;-73
2021/07/15 08:54:59;;;;;;;3.30;1.10;;;;;;;18.77;62.00;95986.31;5112032;28;20047;-75
2021/07/15 08:57:25;;;;;;;3.28;1.10;;;;;;;18.78;61.63;95982.38;5111614;28;20064;-75
2021/07/15 08:59:51;;;;;;;1.25;0.93;;;;;;;18.78;61.17;95974.09;5111714;28;20078;-75
2021/07/15 09:02:20;;;;;;;2.58;1.20;;;;;;;18.82;62.03;95977.69;5111184;28;20058;-75
2021/07/15 09:04:49;;;;;;;1.98;1.08;;;;;;;18.84;61.70;95975.34;5111859;28;20044;-75
2021/07/15 09:07:18;;;;;;;1.33;0.80;;;;;;;18.96;61.50;95977.03;5111339;28;20051;-74
2021/07/15 09:09:45;;;;;;;1.33;1.08;;;;;;;19.15;60.30;95978.75;5111879;28;20052;-75
2021/07/15 09:12:12;;;;;;;2.30;1.02;;;;;;;19.20;62.11;95970.09;5111045;28;20502;-74
2021/07/15 09:14:47;;;;;;;1.17;0.95;;;;;;;19.26;61.24;95979.59;5111666;28;20051;-75
2021/07/15 09:17:15;;;;;;;1.60;1.10;;;;;;;19.53;62.77;95978.25;5110811;28;20684;-75
2021/07/15 09:19:43;;;;;;;1.33;0.90;;;;;;;19.66;59.05;95981.50;5111880;28;20430;-74
2021/07/15 09:22:12;;;;;;;1.50;1.10;;;;;;;19.55;57.81;95973.13;5111216;28;20513;-74
2021/07/15 09:24:44;;;;;;;1.38;0.95;;;;;;;19.48;59.42;95975.84;5111460;28;20035;-75
2021/07/15 09:27:14;;;;;;;2.40;1.05;;;;;;;19.73;61.26;95975.22;5111149;28;20047;-75
2021/07/15 09:29:41;;;;;;;1.75;1.05;;;;;;;19.91;59.70;95976.09;5111531;28;20036;-75
2021/07/15 09:32:08;;;;;;;1.23;0.90;;;;;;;19.89;57.95;95972.94;5110645;28;20039;-73
2021/07/15 09:34:36;;;;;;;1.75;0.80;;;;;;;19.86;58.44;95972.91;5111276;28;20532;-75
2021/07/15 09:37:11;;;;;;;1.08;0.90;;;;;;;19.70;58.80;95978.75;5111101;28;20052;-74
2021/07/15 09:39:44;;;;;;;1.40;1.00;;;;;;;19.73;59.67;95977.97;5111500;28;20048;-75
2021/07/15 09:42:15;;;;;;;1.00;0.70;;;;;;;19.74;59.66;95974.84;5111040;28;20048;-74
2021/07/15 09:44:43;;;;;;;1.52;0.90;;;;;;;19.76;59.54;95979.97;5111345;28;20130;-75
2021/07/15 09:47:29;;;;;;;1.88;0.98;;;;;;;19.77;59.52;95979.56;5110936;28;20097;-75
2021/07/15 09:49:56;;;;;;;1.85;1.05;;;;;;;19.67;60.88;95979.53;5111383;28;20117;-74
2021/07/15 09:52:24;;;;;;;2.88;0.98;;;;;;;19.62;59.51;95985.41;5110780;28;20479;-74
2021/07/15 09:54:51;;;;;;;1.90;1.00;;;;;;;19.52;60.20;95982.19;5111299;28;20456;-75
2021/07/15 09:57:26;;;;;;;2.03;1.10;;;;;;;19.46;62.53;95993.97;5110722;28;20429;-74
2021/07/15 09:59:52;;;;;;;1.73;0.90;;;;;;;19.12;67.64;96001.59;5111261;28;20048;-74
2021/07/15 10:02:28;;;;;;;2.15;1.30;;;;;;;18.88;69.27;95998.22;5110419;28;20044;-75
2021/07/15 10:04:55;;;;;;;1.38;0.93;;;;;;;18.62;70.65;96001.91;5090789;28;20056;-75
2021/07/15 10:07:25;;;;;;;2.92;1.80;;;;;;;18.35;71.68;95998.47;5090183;28;20044;-74
2021/07/15 10:10:15;;;;;;;4.30;1.35;;;;;;;18.11;73.79;95999.75;5091009;28;20056;-74
2021/07/15 10:12:41;;;;;;;3.38;1.70;;;;;;;17.94;74.95;96006.63;5090822;28;20494;-75
2021/07/15 10:15:09;;;;;;;2.60;1.60;;;;;;;17.76;75.50;96011.13;5097783;28;20047;-74
2021/07/15 10:17:40;;;;;;;4.05;2.08;;;;;;;17.63;77.24;96009.72;5111083;28;20521;-74
2021/07/15 10:20:11;;;;;;;2.58;1.55;;;;;;;17.46;77.77;96003.56;5110633;28;20048;-75
2021/07/15 10:22:40;;;;;;;2.35;1.90;;;;;;;17.41;78.79;95998.41;5111200;28;20039;-74
2021/07/15 10:25:07;;;;;;;3.25;1.80;;;;;;;17.30;78.95;96002.94;5110462;28;20071;-74
2021/07/15 10:27:34;;;;;;;2.13;1.50;;;;;;;17.29;78.68;96003.31;5110914;28;20066;-74
2021/07/15 10:30:02;;;;;;;2.05;1.58;;;;;;;17.32;79.05;96003.34;5113523;28;20048;-74
2021/07/15 10:32:30;;;;;;;3.40;1.60;;;;;;;17.40;79.38;96012.53;5111489;28;20206;-74
2021/07/15 10:34:56;;;;;;;2.22;1.55;;;;;;;17.48;79.79;96009.50;5114732;28;20043;-75
2021/07/15 10:37:24;;;;;;;3.13;1.40;;;;;;;17.51;78.31;96020.94;5114256;28;20050;-74
2021/07/15 10:39:53;;;;;;;2.78;1.60;;;;;;;17.44;77.66;96018.88;5114580;28;20442;-74
2021/07/15 10:42:20;;;;;;;2.40;1.70;;;;;;;17.37;78.42;96016.81;5114086;28;20050;-73
2021/07/15 10:44:46;;;;;;;3.33;1.70;;;;;;;17.42;79.37;96013.75;5114747;28;20039;-74
2021/07/15 10:47:13;;;;;;;2.83;1.95;;;;;;;17.52;79.81;96014.28;5114043;28;20133;-74
2021/07/15 10:49:42;;;;;;;3.17;2.20;;;;;;;17.47;80.07;96016.16;5114538;28;20548;-75
2021/07/15 10:52:10;;;;;;;2.72;2.00;;;;;;;17.46;80.01;96014.59;5114060;28;20043;-73
2021/07/15 10:54:39;;;;;;;3.45;1.60;;;;;;;17.36;77.37;96011.69;5114259;28;20044;-74
2021/07/15 10:57:08;;;;;;;2.30;1.48;;;;;;;17.21;76.85;96014.19;5113882;28;20044;-74
2021/07/15 10:59:35;;;;;;;2.17;1.40;;;;;;;17.20;77.95;96018.13;5114363;28;20059;-73
2021/07/15 11:02:03;;;;;;;2.50;1.60;;;;;;;17.16;76.98;96016.47;5114257;28;20074;-74
2021/07/15 11:04:38;;;;;;;3.85;1.85;;;;;;;17.09;77.27;96016.38;5113904;28;20039;-74
2021/07/15 11:07:20;;;;;;;2.60;1.58;;;;;;;16.97;78.14;96020.09;5113748;28;20051;-74
2021/07/15 11:09:47;;;;;;;4.93;1.38;;;;;;;16.99;78.83;96023.28;5114086;28;20261;-75
2021/07/15 11:12:35;;;;;;;3.53;1.42;;;;;;;17.03;79.24;96015.88;5113335;28;20051;-74
2021/07/15 11:15:06;;;;;;;2.20;1.60;;;;;;;17.01;79.51;96025.66;5114012;28;20054;-74
2021/07/15 11:17:34;;;;;;;2.10;1.30;;;;;;;16.93;78.97;96020.03;5113941;28;20489;-74
2021/07/15 11:20:06;;;;;;;2.67;1.58;;;;;;;16.93;79.15;96024.75;5113967;28;20410;-74
2021/07/15 11:22:38;;;;;;;2.60;1.60;;;;;;;16.97;79.64;96024.81;5113810;28;20089;-74
2021/07/15 11:25:06;;;;;;;2.67;1.55;;;;;;;17.04;77.58;96025.72;5113189;28;20075;-73
2021/07/15 11:27:51;;;;;;;5.97;1.80;;;;;;;17.06;78.16;96023.38;5113714;28;20428;-74
2021/07/15 11:30:29;;;;;;;3.10;1.40;;;;;;;17.21;77.61;96029.91;5113112;28;20066;-74
2021/07/15 11:32:57;;;;;;;3.05;1.40;;;;;;;17.35;77.13;96030.16;5113234;28;20051;-74
2021/07/15 11:35:33;;;;;;;1.80;1.30;;;;;;;17.48;77.04;96028.75;5113141;28;20047;-75
2021/07/15 11:38:13;;;;;;;1.60;1.25;;;;;;;17.65;77.82;96030.22;5113628;28;20097;-74
2021/07/15 11:40:50;;;;;;;1.73;1.40;;;;;;;17.71;75.63;96025.19;5112545;28;20040;-74